Flight Track Log - Related Links

Times and Time Zones

All times are in EDT time to prevent confusion due to time zone crossing. See the SKW5594 flight status page for this flight to view local times or setup timezone preferences in your user account.

Time Position Orientation Groundspeed Altitude Reporting Facility
EDT Latitude Longitude Course Direction KTS MPH feet Rate Location/Type
Sat 03:29:41 PM 33.9242 -118.4622 231° Southwest 186 214 2,300  Level Los Angeles Center
Sat 03:30:42 PM 33.8844 -118.5219 231° Southwest 228 262 4,200 2,098 Climbing Los Angeles Center
Sat 03:31:44 PM 33.8247 -118.5533 204° Southwest 270 311 6,600 2,471 Climbing Los Angeles Center
Sat 03:32:58 PM 33.7328 -118.5303 168° South 287 330 9,800 2,206 Climbing Los Angeles Center
Sat 03:34:00 PM 33.6717 -118.4347 128° Southeast 338 389 11,600 1,839 Climbing Los Angeles Center
Sat 03:35:02 PM 33.6433 -118.3228 107° East 363 418 13,600 1,839 Climbing Los Angeles Center
Sat 03:36:04 PM 33.6447 -118.2017 89° East 372 428 15,400 1,790 Climbing Los Angeles Center
Sat 03:37:06 PM 33.6439 -118.0447 90° East 396 456 17,300 1,694 Climbing Los Angeles Center
Sat 03:38:08 PM 33.6439 -117.9086 90° East 409 471 18,900 1,452 Climbing Los Angeles Center
Sat 03:39:10 PM 33.6433 -117.7681 90° East 422 486 20,300 1,463 Climbing Los Angeles Center
Sat 03:40:11 PM 33.6428 -117.6217 90° East 438 504 21,900 1,512 Climbing Los Angeles Center
Sat 03:41:13 PM 33.6417 -117.4736 90° East 444 511 23,400 1,403 Climbing Los Angeles Center
Sat 03:42:15 PM 33.6411 -117.3244 90° East 450 518 24,800 1,355 Climbing Los Angeles Center
Sat 03:43:17 PM 33.6397 -117.1392 90° East 462 532 26,200 1,161 Climbing Los Angeles Center
Sat 03:44:19 PM 33.6228 -116.9833 97° East 478 550 27,200 919 Climbing Los Angeles Center
Sat 03:45:21 PM 33.6050 -116.8281 98° East 476 548 28,100 871 Climbing Los Angeles Center
Sat 03:46:23 PM 33.5853 -116.6664 98° East 485 558 29,000 780 Climbing Los Angeles Center
Sat 03:47:24 PM 33.5642 -116.5028 99° East 492 566 29,700 732 Climbing Los Angeles Center
Sat 03:48:26 PM 33.5422 -116.3364 99° East 502 578 30,500 774 Climbing Los Angeles Center
Sat 03:49:28 PM 33.5222 -116.1683 98° East 505 581 31,300 832 Climbing Los Angeles Center
Sat 03:50:43 PM 33.4903 -115.9319 99° East 511 588 32,400 832 Climbing Los Angeles Center
Sat 03:51:45 PM 33.4678 -115.7639 99° East 509 586 33,200 823 Climbing Los Angeles Center
Sat 03:52:47 PM 33.4450 -115.5964 99° East 508 585 34,100 823 Climbing Los Angeles Center
Sat 03:53:49 PM 33.4225 -115.4286 99° East 510 587 34,900 750 Climbing Los Angeles Center
Sat 03:55:03 PM 33.3944 -115.2286 99° East 508 585 35,800 750 Climbing Los Angeles Center
Sat 03:56:05 PM 33.3689 -115.0622 100° East 507 583 36,600 871 Climbing Los Angeles Center
Sat 03:57:07 PM 33.3425 -114.8642 99° East 506 582 37,600 774 Climbing Los Angeles Center
Sat 03:58:09 PM 33.3200 -114.7031 99° East 492 566 38,200 581 Climbing Los Angeles Center
Sat 03:59:11 PM 33.2961 -114.5419 100° East 491 565 38,800 387 Climbing Los Angeles Center
Sat 04:00:13 PM 33.2719 -114.3833 100° East 487 560 39,000 97 Climbing Los Angeles Center
Sat 04:01:15 PM 33.2503 -114.2189 99° East 498 573 39,000  Level Los Angeles Center
Sat 04:02:18 PM 33.2272 -114.0536 99° East 502 578 39,000  Level Los Angeles Center
Sat 04:02:45 PM 33.2167 -113.9753 99° East 504 580 39,000  Level Albuquerque Center
Sat 04:03:20 PM 33.1975 -113.8542 101° East 509 586 39,000  Level Los Angeles Center
Sat 04:04:22 PM 33.1719 -113.6878 100° East 510 587 39,000  Level Los Angeles Center
Sat 04:05:24 PM 33.1472 -113.5200 100° East 513 590 39,000  Level Los Angeles Center
Sat 04:05:49 PM 33.1356 -113.4386 100° East 513 590 39,000  Level Albuquerque Center
Sat 04:06:51 PM 33.1108 -113.2703 100° East 514 592 39,000  Level Albuquerque Center
Sat 04:07:52 PM 33.0942 -113.1006 97° East 514 592 39,000  Level Albuquerque Center
Sat 04:08:54 PM 33.0764 -112.9300 97° East 514 592 39,000  Level Albuquerque Center
Sat 04:09:55 PM 33.0594 -112.7597 97° East 514 592 39,000  Level Albuquerque Center
Sat 04:10:57 PM 33.0414 -112.5892 97° East 515 593 39,000  Level Albuquerque Center
Sat 04:11:59 PM 33.0225 -112.4194 98° East 516 594 39,000  Level Albuquerque Center
Sat 04:13:00 PM 33.0047 -112.2542 97° East 517 595 39,000  Level Albuquerque Center
Sat 04:14:02 PM 32.9836 -112.0514 97° East 518 596 39,000  Level Albuquerque Center
Sat 04:15:03 PM 32.9642 -111.8836 98° East 516 594 39,000  Level Albuquerque Center
Sat 04:16:04 PM 32.9464 -111.7164 97° East 514 592 39,000  Level Albuquerque Center
Sat 04:17:06 PM 32.9275 -111.5483 98° East 515 593 39,000  Level Albuquerque Center
Sat 04:18:07 PM 32.9083 -111.3825 98° East 510 587 39,000  Level Albuquerque Center
Sat 04:19:09 PM 32.8886 -111.2144 98° East 515 593 39,000  Level Albuquerque Center
Sat 04:20:10 PM 32.8706 -111.0467 97° East 514 592 39,000  Level Albuquerque Center
Sat 04:21:12 PM 32.8456 -110.8469 98° East 513 590 39,000  Level Albuquerque Center
Sat 04:22:13 PM 32.8253 -110.6814 98° East 510 587 39,000  Level Albuquerque Center
Sat 04:23:15 PM 32.8081 -110.5369 98° East 509 586 39,000  Level Albuquerque Center
Sat 04:24:16 PM 32.7844 -110.3383 98° East 511 588 39,000  Level Albuquerque Center
Sat 04:25:18 PM 32.7644 -110.1736 98° East 509 586 39,000  Level Albuquerque Center
Sat 04:26:19 PM 32.7425 -110.0100 99° East 509 586 39,000  Level Albuquerque Center
Sat 04:27:21 PM 32.7306 -109.8511 95° East 489 563 39,000  Level Albuquerque Center
Sat 04:28:22 PM 32.6992 -109.6833 102° East 505 581 39,000  Level Albuquerque Center
Sat 04:29:24 PM 32.6747 -109.4906 99° East 500 575 39,000  Level Albuquerque Center
Sat 04:30:25 PM 32.6531 -109.3314 99° East 497 572 39,000  Level Albuquerque Center
Sat 04:31:27 PM 32.6325 -109.1728 99° East 497 572 39,000  Level Albuquerque Center
Sat 04:32:28 PM 32.6114 -109.0150 99° East 494 568 39,000  Level Albuquerque Center
Sat 04:33:30 PM 32.5900 -108.8564 99° East 496 571 39,000  Level Albuquerque Center
Sat 04:34:31 PM 32.5642 -108.6678 99° East 493 567 39,000  Level Albuquerque Center
Sat 04:35:33 PM 32.5411 -108.5103 100° East 492 566 39,000  Level Albuquerque Center
Sat 04:36:34 PM 32.5197 -108.3525 99° East 492 566 39,000  Level Albuquerque Center
Sat 04:37:35 PM 32.4981 -108.1939 99° East 493 567 39,000  Level Albuquerque Center
Sat 04:38:37 PM 32.4764 -108.0364 99° East 492 566 39,000  Level Albuquerque Center
Sat 04:39:38 PM 32.4533 -107.8786 100° East 492 566 39,000  Level Albuquerque Center
Sat 04:40:40 PM 32.4244 -107.6867 100° East 494 568 39,000  Level Albuquerque Center
Sat 04:41:41 PM 32.4017 -107.5278 100° East 493 567 39,000  Level Albuquerque Center
Sat 04:42:42 PM 32.3806 -107.3731 99° East 491 565 39,000  Level Albuquerque Center
Sat 04:43:44 PM 32.3567 -107.2150 100° East 493 567 39,000  Level Albuquerque Center
Sat 04:44:45 PM 32.3319 -107.0344 99° East 491 565 39,000  Level Albuquerque Center
Sat 04:45:47 PM 32.3069 -106.8758 101° East 491 565 39,000  Level Albuquerque Center
Sat 04:46:48 PM 32.2825 -106.7156 100° East 487 560 39,000  Level Albuquerque Center
Sat 04:47:49 PM 32.2581 -106.5586 100° East 486 559 39,000  Level Albuquerque Center
Sat 04:48:51 PM 32.2336 -106.4028 100° East 486 559 39,000  Level Albuquerque Center
Sat 04:49:52 PM 32.2067 -106.2333 101° East 489 563 39,000  Level Albuquerque Center
Sat 04:50:54 PM 32.1833 -106.0900 101° East 490 564 39,000  Level Albuquerque Center
Sat 04:51:55 PM 32.1581 -105.9342 101° East 485 558 39,000  Level Albuquerque Center
Sat 04:52:57 PM 32.1331 -105.7775 101° East 486 559 39,000 -49 Level Albuquerque Center
Sat 04:53:58 PM 32.1075 -105.6217 101° East 484 557 38,900  Descending Albuquerque Center
Sat 04:54:59 PM 32.0775 -105.4350 101° East 484 557 39,000 49 Climbing Albuquerque Center
Sat 04:56:01 PM 32.0522 -105.2800 101° East 482 555 39,000 -49 Level Albuquerque Center
Sat 04:57:02 PM 32.0261 -105.1267 101° East 479 551 38,900  Descending Albuquerque Center
Sat 04:58:04 PM 32.0006 -104.9708 101° East 481 554 39,000 49 Climbing Albuquerque Center
Sat 04:59:05 PM 31.9739 -104.8147 101° East 483 556 39,000  Level Albuquerque Center
Sat 05:00:07 PM 31.9483 -104.6586 101° East 484 557 39,000  Level Albuquerque Center
Sat 05:01:08 PM 31.9197 -104.5022 102° East 485 558 39,000  Level Albuquerque Center
Sat 05:02:10 PM 31.8650 -104.3597 114° Southeast 481 554 39,000  Level Albuquerque Center
Sat 05:03:11 PM 31.8067 -104.2164 116° Southeast 481 554 39,000  Level Albuquerque Center
Sat 05:04:13 PM 31.7514 -104.0403 110° East 482 555 39,000  Level Albuquerque Center
Sat 05:05:14 PM 31.7272 -103.8861 100° East 480 552 39,000  Level Albuquerque Center
Sat 05:06:16 PM 31.7000 -103.7283 101° East 482 555 39,000  Level Albuquerque Center
Sat 05:07:17 PM 31.6753 -103.5756 101° East 480 552 39,000  Level Albuquerque Center
Sat 05:08:19 PM 31.6514 -103.4272 101° East 478 550 39,000  Level Albuquerque Center
Sat 05:09:20 PM 31.6408 -103.2708 94° East 480 552 39,000  Level Albuquerque Center
Sat 05:10:22 PM 31.6283 -103.1142 95° East 481 554 39,000  Level Albuquerque Center
Sat 05:11:23 PM 31.6114 -102.9272 96° East 481 554 39,000  Level Albuquerque Center
Sat 05:12:25 PM 31.5975 -102.7703 96° East 481 554 39,000  Level Albuquerque Center
Sat 05:13:26 PM 31.5839 -102.6142 96° East 481 554 39,000  Level Albuquerque Center
Sat 05:14:28 PM 31.5714 -102.4575 95° East 480 552 39,000  Level Albuquerque Center
Sat 05:15:29 PM 31.5564 -102.2989 96° East 484 557 39,000  Level Albuquerque Center
Sat 05:16:31 PM 31.5422 -102.1408 96° East 482 555 39,000  Level Albuquerque Center
Sat 05:17:32 PM 31.5269 -101.9822 96° East 485 558 39,000  Level Albuquerque Center
Sat 05:18:34 PM 31.5158 -101.8261 95° East 483 556 39,000  Level Fort Worth Center
Sat 05:19:34 PM 31.4983 -101.6694 97° East 483 556 39,000  Level Fort Worth Center
Sat 05:20:34 PM 31.4825 -101.5153 97° East 483 556 39,000 -150 Level Fort Worth Center
Sat 05:21:34 PM 31.4706 -101.3639 95° East 483 556 38,700 -1,000 Descending Fort Worth Center
Sat 05:22:34 PM 31.4506 -101.2047 98° East 483 556 37,000 -1,718 Descending Fort Worth Center
Sat 05:25:00 PM 31.4128 -100.8142 96° East 497 572 32,800 -1,731 Descending Houston Center
Sat 05:26:02 PM 31.3950 -100.6558 97° East 491 565 31,000 -1,756 Descending Houston Center
Sat 05:27:03 PM 31.3797 -100.4994 96° East 483 556 29,200 -976 Descending Houston Center
Sat 05:28:05 PM 31.3403 -100.3531 107° East 470 541 29,000 -98 Descending Houston Center
Sat 05:29:06 PM 31.2911 -100.2108 112° Southeast 473 544 29,000  Level Houston Center
Sat 05:30:08 PM 31.2422 -100.0661 112° Southeast 476 548 29,000  Level Houston Center
Sat 05:31:09 PM 31.1842 -99.8939 111° Southeast 476 548 29,000 -341 Level Houston Center
Sat 05:32:11 PM 31.1461 -99.7431 106° East 481 554 28,300 -976 Descending Houston Center
Sat 05:33:12 PM 31.1083 -99.5914 106° East 485 558 27,000 -1,171 Descending Houston Center
Sat 05:34:14 PM 31.0706 -99.4392 106° East 488 562 25,900 -1,024 Descending Houston Center
Sat 05:35:15 PM 31.0311 -99.2889 107° East 485 558 24,900 -1,073 Descending Houston Center
Sat 05:36:17 PM 30.9939 -99.1422 106° East 477 549 23,700 -1,512 Descending Houston Center
Sat 05:37:18 PM 30.9567 -98.9950 106° East 470 541 21,800 -1,902 Descending Houston Center
Sat 05:38:20 PM 30.9222 -98.8542 106° East 453 521 19,800 -2,000 Descending Houston Center
Sat 05:39:21 PM 30.8817 -98.6981 107° East 432 497 17,700 -2,049 Descending Houston Center
Sat 05:40:23 PM 30.8489 -98.5653 106° East 427 491 15,600 -2,000 Descending Houston Center
Sat 05:41:24 PM 30.8097 -98.4431 110° East 405 466 13,600 -1,935 Descending Houston Center
Sat 05:42:27 PM 30.7378 -98.3500 132° Southeast 382 440 11,600 -1,742 Descending Houston Center
Sat 05:43:28 PM 30.6672 -98.2614 133° Southeast 373 429 10,000 -836 Descending Houston Center
Sat 05:44:29 PM 30.6044 -98.1814 132° Southeast 341 392 9,900 -439 Descending Houston Center
Sat 05:45:31 PM 30.5722 -98.0936 113° Southeast 300 345 9,100 -1,220 Descending Houston Center
Sat 05:46:32 PM 30.5403 -98.0078 113° Southeast 291 335 7,400 -1,463 Descending Houston Center
Sat 05:47:34 PM 30.5103 -97.9256 113° Southeast 281 323 6,100 -1,171 Descending Houston Center
Sat 05:48:35 PM 30.4817 -97.8472 113° Southeast 269 310 5,000 -1,073 Descending Houston Center
Sat 05:49:37 PM 30.4467 -97.7564 114° Southeast 264 304 3,900 -976 Descending Houston Center
Sat 05:50:38 PM 30.4061 -97.6903 125° Southeast 263 303 3,000 -585 Descending Houston Center
Sat 05:51:40 PM 30.3497 -97.6814 172° South 212 244 2,700 -488 Descending Houston Center
Sat 05:52:41 PM 30.3058 -97.6825 181° South 170 196 2,000 -488 Descending Houston Center
Sat 05:53:43 PM 30.2672 -97.6808 178° South 145 167 1,700 -537 Descending Houston Center
Sat 05:54:44 PM 30.2319 -97.6789 177° South 134 154 900 -787 Descending Houston Center
Sat 05:56:00 PM 30.1945 -97.6699 176° South  Level Estimated
Sat 06:03:00 PM 30.1945 -97.6699 176° South  Level Estimated
Sat 06:04:00 PM 30.1945 -97.6699 176° South  Level Estimated

Login

Don't have an account? Register now (free) for customized features, flight alerts, and more!